createdAt,value
2023-01-29T00:00:58.440Z,964.16
2023-01-29T00:01:57.035Z,964.16
2023-01-29T00:02:56.920Z,964.09
2023-01-29T00:03:56.934Z,964.05
2023-01-29T00:04:59.105Z,964.10
2023-01-29T00:05:56.916Z,964.21
2023-01-29T00:06:56.890Z,964.20
2023-01-29T00:07:56.936Z,964.19
2023-01-29T00:08:56.838Z,964.31
2023-01-29T00:09:56.865Z,964.29
2023-01-29T00:10:56.923Z,964.29
2023-01-29T00:11:56.845Z,964.33
2023-01-29T00:12:56.792Z,964.31
2023-01-29T00:13:56.784Z,964.36
2023-01-29T00:14:56.823Z,964.36
2023-01-29T00:15:56.780Z,964.35
2023-01-29T00:16:56.911Z,964.32
2023-01-29T00:17:56.773Z,964.35
2023-01-29T00:18:56.739Z,964.31
2023-01-29T00:19:56.717Z,964.36
2023-01-29T00:20:56.713Z,964.35
2023-01-29T00:21:56.693Z,964.38
2023-01-29T00:22:56.713Z,964.31
2023-01-29T00:23:56.711Z,964.35
2023-01-29T00:24:56.683Z,964.30
2023-01-29T00:25:56.647Z,964.23
2023-01-29T00:26:56.659Z,964.26
2023-01-29T00:27:56.637Z,964.19
2023-01-29T00:28:56.660Z,964.14
2023-01-29T00:29:56.611Z,964.19
2023-01-29T00:30:56.720Z,964.16
2023-01-29T00:31:56.735Z,964.19
2023-01-29T00:32:56.582Z,964.16
2023-01-29T00:33:56.613Z,964.18
2023-01-29T00:34:56.566Z,964.15
2023-01-29T00:35:56.536Z,964.20
2023-01-29T00:36:56.535Z,964.13
2023-01-29T00:37:56.547Z,964.18
2023-01-29T00:38:56.517Z,964.14
2023-01-29T00:39:56.523Z,964.27
2023-01-29T00:40:56.487Z,964.18
2023-01-29T00:41:56.483Z,964.17
2023-01-29T00:42:56.497Z,964.21
2023-01-29T00:43:56.481Z,964.25
2023-01-29T00:44:56.454Z,964.31
2023-01-29T00:45:56.508Z,964.34
2023-01-29T00:46:56.475Z,964.33
2023-01-29T00:47:56.442Z,964.30
2023-01-29T00:48:56.405Z,964.29
2023-01-29T00:49:56.396Z,964.32
2023-01-29T00:50:56.428Z,964.32
2023-01-29T00:51:56.371Z,964.44
2023-01-29T00:52:56.392Z,964.38
2023-01-29T00:53:56.378Z,964.36
2023-01-29T00:54:56.488Z,964.35
2023-01-29T00:55:56.339Z,964.33
2023-01-29T00:56:56.326Z,964.36
2023-01-29T00:57:56.380Z,964.31
2023-01-29T00:58:56.350Z,964.28
2023-01-29T00:59:56.310Z,964.26
2023-01-29T01:00:56.338Z,964.26
2023-01-29T01:01:56.347Z,964.21
2023-01-29T01:02:56.294Z,964.21
2023-01-29T01:03:56.248Z,964.19
2023-01-29T01:04:56.245Z,964.20
2023-01-29T01:05:56.241Z,964.19
2023-01-29T01:06:56.221Z,964.13
2023-01-29T01:07:56.209Z,964.14
2023-01-29T01:08:56.184Z,964.15
2023-01-29T01:09:56.208Z,964.14
2023-01-29T01:10:56.194Z,964.18
2023-01-29T01:11:56.204Z,964.22
2023-01-29T01:12:56.138Z,964.17
2023-01-29T01:13:56.152Z,964.14
2023-01-29T01:14:56.139Z,964.09
2023-01-29T01:15:56.135Z,964.02
2023-01-29T01:16:56.136Z,963.95
2023-01-29T01:17:56.126Z,963.94
2023-01-29T01:18:56.094Z,963.92
2023-01-29T01:19:56.071Z,963.82
2023-01-29T01:20:56.064Z,963.79
2023-01-29T01:21:56.047Z,963.70
2023-01-29T01:22:56.069Z,963.73
2023-01-29T01:23:56.119Z,963.71
2023-01-29T01:24:56.042Z,963.72
2023-01-29T01:25:56.354Z,963.72
2023-01-29T01:26:56.038Z,963.70
2023-01-29T01:27:55.994Z,963.69
2023-01-29T01:28:55.981Z,963.68
2023-01-29T01:29:55.965Z,963.65
2023-01-29T01:30:56.038Z,963.59
2023-01-29T01:31:56.109Z,963.55
2023-01-29T01:32:55.971Z,963.54
2023-01-29T01:33:55.923Z,963.54
2023-01-29T01:34:55.899Z,963.56
2023-01-29T01:35:55.904Z,963.52
2023-01-29T01:36:55.886Z,963.51
2023-01-29T01:37:55.929Z,963.48
2023-01-29T01:38:55.868Z,963.46
2023-01-29T01:39:55.853Z,963.50
2023-01-29T01:40:55.860Z,963.47
2023-01-29T01:41:55.832Z,963.52
2023-01-29T01:42:55.842Z,963.54
2023-01-29T01:43:55.865Z,963.48
2023-01-29T01:44:55.818Z,963.51
2023-01-29T01:45:55.805Z,963.55
2023-01-29T01:46:55.757Z,963.53
2023-01-29T01:47:55.773Z,963.54
2023-01-29T01:48:56.006Z,963.55
2023-01-29T01:49:55.758Z,963.58
2023-01-29T01:50:55.758Z,963.48
2023-01-29T01:51:55.723Z,963.48
2023-01-29T01:52:55.703Z,963.43
2023-01-29T01:53:55.710Z,963.49
2023-01-29T01:54:56.335Z,963.42
2023-01-29T01:55:55.733Z,963.42
2023-01-29T01:56:55.689Z,963.38
2023-01-29T01:57:55.657Z,963.33
2023-01-29T01:58:55.741Z,963.30
2023-01-29T01:59:55.628Z,963.28
2023-01-29T02:00:55.657Z,963.23
2023-01-29T02:01:55.694Z,963.19
2023-01-29T02:02:55.611Z,963.22
2023-01-29T02:03:55.616Z,963.21
2023-01-29T02:04:58.715Z,963.16
2023-01-29T02:05:55.562Z,963.16
2023-01-29T02:06:55.553Z,963.17
2023-01-29T02:07:55.599Z,963.10
2023-01-29T02:08:55.578Z,963.10
2023-01-29T02:09:55.569Z,963.15
2023-01-29T02:10:55.521Z,963.17
2023-01-29T02:11:55.517Z,963.19
2023-01-29T02:12:55.514Z,963.22
2023-01-29T02:13:55.511Z,963.25
2023-01-29T02:14:55.503Z,963.27
2023-01-29T02:15:55.461Z,963.28
2023-01-29T02:16:55.449Z,963.23
2023-01-29T02:17:55.464Z,963.30
2023-01-29T02:18:55.437Z,963.25
2023-01-29T02:19:55.447Z,963.25
2023-01-29T02:20:55.414Z,963.24
2023-01-29T02:21:55.386Z,963.18
2023-01-29T02:22:55.484Z,963.15
2023-01-29T02:23:55.534Z,963.17
2023-01-29T02:24:55.431Z,963.20
2023-01-29T02:25:55.360Z,963.16
2023-01-29T02:26:55.378Z,963.15
2023-01-29T02:27:55.356Z,963.08
2023-01-29T02:28:55.340Z,963.06
2023-01-29T02:29:55.352Z,962.98
2023-01-29T02:30:55.359Z,962.99
2023-01-29T02:31:55.400Z,963.01
2023-01-29T02:32:55.280Z,962.93
2023-01-29T02:33:55.259Z,962.90
2023-01-29T02:34:55.304Z,962.92
2023-01-29T02:35:55.233Z,962.89
2023-01-29T02:36:55.257Z,962.91
2023-01-29T02:37:55.257Z,962.87
2023-01-29T02:38:55.263Z,962.84
2023-01-29T02:39:55.397Z,962.85
2023-01-29T02:40:55.192Z,962.79
2023-01-29T02:41:55.217Z,962.75
2023-01-29T02:42:55.169Z,962.73
2023-01-29T02:43:55.153Z,962.69
2023-01-29T02:44:55.140Z,962.66
2023-01-29T02:45:55.207Z,962.66
2023-01-29T02:46:55.112Z,962.64
2023-01-29T02:47:55.116Z,962.64
2023-01-29T02:48:55.101Z,962.58
2023-01-29T02:49:55.113Z,962.61
2023-01-29T02:50:55.141Z,962.56
2023-01-29T02:51:55.090Z,962.60
2023-01-29T02:52:55.051Z,962.55
2023-01-29T02:53:55.079Z,962.54
2023-01-29T02:54:55.019Z,962.59
2023-01-29T02:55:55.055Z,962.59
2023-01-29T02:56:55.042Z,962.54
2023-01-29T02:57:55.004Z,962.58
2023-01-29T02:58:54.989Z,962.51
2023-01-29T02:59:55.004Z,962.58
2023-01-29T03:00:55.014Z,962.51
2023-01-29T03:01:55.026Z,962.51
2023-01-29T03:02:54.970Z,962.45
2023-01-29T03:03:54.946Z,962.48
2023-01-29T03:04:54.932Z,962.44
2023-01-29T03:05:54.934Z,962.40
2023-01-29T03:06:54.901Z,962.38
2023-01-29T03:07:54.906Z,962.40
2023-01-29T03:08:54.879Z,962.31
2023-01-29T03:09:54.929Z,962.34
2023-01-29T03:10:54.855Z,962.38
2023-01-29T03:11:54.847Z,962.33
2023-01-29T03:12:54.867Z,962.30
2023-01-29T03:13:54.820Z,962.29
2023-01-29T03:14:54.827Z,962.28
2023-01-29T03:15:54.830Z,962.29
2023-01-29T03:16:54.787Z,962.29
2023-01-29T03:17:54.821Z,962.23
2023-01-29T03:18:54.774Z,962.26
2023-01-29T03:19:54.785Z,962.22
2023-01-29T03:20:54.768Z,962.22
2023-01-29T03:21:54.745Z,962.25
2023-01-29T03:22:54.735Z,962.19
2023-01-29T03:23:54.751Z,962.25
2023-01-29T03:24:54.737Z,962.23
2023-01-29T03:25:54.733Z,962.20
2023-01-29T03:26:54.691Z,962.22
2023-01-29T03:27:54.716Z,962.20
2023-01-29T03:28:54.654Z,962.21
2023-01-29T03:29:54.676Z,962.22
2023-01-29T03:30:54.761Z,962.16
2023-01-29T03:31:54.680Z,962.13
2023-01-29T03:32:54.611Z,962.15
2023-01-29T03:33:54.616Z,962.10
2023-01-29T03:34:54.595Z,962.03
2023-01-29T03:35:54.570Z,961.97
2023-01-29T03:36:54.600Z,961.90
2023-01-29T03:37:54.580Z,961.88
2023-01-29T03:38:54.566Z,961.85
2023-01-29T03:39:54.556Z,961.82
2023-01-29T03:40:54.529Z,961.86
2023-01-29T03:41:54.533Z,961.82
2023-01-29T03:42:54.498Z,961.78
2023-01-29T03:43:54.500Z,961.77
2023-01-29T03:44:54.479Z,961.81
2023-01-29T03:45:54.765Z,961.78
2023-01-29T03:46:54.515Z,961.75
2023-01-29T03:47:54.478Z,961.73
2023-01-29T03:48:54.448Z,961.71
2023-01-29T03:49:54.422Z,961.73
2023-01-29T03:50:54.429Z,961.61
2023-01-29T03:51:54.428Z,961.62
2023-01-29T03:52:54.428Z,961.59
2023-01-29T03:53:54.378Z,961.57
2023-01-29T03:54:54.385Z,961.53
2023-01-29T03:55:54.380Z,961.47
2023-01-29T03:56:54.354Z,961.50
2023-01-29T03:57:54.387Z,961.41
2023-01-29T03:58:54.335Z,961.39
2023-01-29T03:59:54.365Z,961.39
2023-01-29T04:00:54.320Z,961.29
2023-01-29T04:01:54.304Z,961.33
2023-01-29T04:02:54.278Z,961.30
2023-01-29T04:03:54.373Z,961.30
2023-01-29T04:04:54.273Z,961.34
2023-01-29T04:05:54.265Z,961.33
2023-01-29T04:06:54.258Z,961.30
2023-01-29T04:07:54.232Z,961.28
2023-01-29T04:08:54.290Z,961.24
2023-01-29T04:09:54.277Z,961.26
2023-01-29T04:10:54.215Z,961.26
2023-01-29T04:11:54.180Z,961.24
2023-01-29T04:12:54.211Z,961.22
2023-01-29T04:13:54.187Z,961.24
2023-01-29T04:14:54.191Z,961.24
2023-01-29T04:15:54.158Z,961.23
2023-01-29T04:16:54.123Z,961.22
2023-01-29T04:17:54.122Z,961.10
2023-01-29T04:18:54.174Z,961.16
2023-01-29T04:19:54.117Z,961.13
2023-01-29T04:20:54.107Z,961.11
2023-01-29T04:21:54.068Z,961.08
2023-01-29T04:22:54.069Z,961.02
2023-01-29T04:23:54.078Z,961.07
2023-01-29T04:24:54.098Z,961.01
2023-01-29T04:25:54.062Z,961.05
2023-01-29T04:26:54.024Z,960.97
2023-01-29T04:27:54.012Z,960.96
2023-01-29T04:28:53.996Z,960.98
2023-01-29T04:29:54.031Z,960.89
2023-01-29T04:30:54.122Z,960.89
2023-01-29T04:31:53.982Z,960.92
2023-01-29T04:32:53.975Z,960.95
2023-01-29T04:33:53.975Z,960.90
2023-01-29T04:34:53.935Z,960.82
2023-01-29T04:35:53.967Z,960.83
2023-01-29T04:36:53.945Z,960.79
2023-01-29T04:37:53.911Z,960.77
2023-01-29T04:38:53.928Z,960.74
2023-01-29T04:39:54.025Z,960.76
2023-01-29T04:40:53.943Z,960.68
2023-01-29T04:41:53.894Z,960.68
2023-01-29T04:42:53.886Z,960.69
2023-01-29T04:43:54.005Z,960.63
2023-01-29T04:44:53.827Z,960.64
2023-01-29T04:45:53.863Z,960.60
2023-01-29T04:46:53.904Z,960.54
2023-01-29T04:47:53.835Z,960.51
2023-01-29T04:48:53.826Z,960.43
2023-01-29T04:49:53.787Z,960.43
2023-01-29T04:50:53.765Z,960.42
2023-01-29T04:51:53.765Z,960.40
2023-01-29T04:52:53.766Z,960.45
2023-01-29T04:53:53.803Z,960.43
2023-01-29T04:54:53.722Z,960.35
2023-01-29T04:55:54.453Z,960.35
2023-01-29T04:56:53.747Z,960.30
2023-01-29T04:57:53.690Z,960.26
2023-01-29T04:58:53.705Z,960.29
2023-01-29T04:59:53.674Z,960.23
2023-01-29T05:00:53.660Z,960.26
2023-01-29T05:01:53.683Z,960.20
2023-01-29T05:02:53.693Z,960.18
2023-01-29T05:03:53.714Z,960.17
2023-01-29T05:04:53.636Z,960.20
2023-01-29T05:05:53.634Z,960.17
2023-01-29T05:06:53.584Z,960.18
2023-01-29T05:07:53.688Z,960.15
2023-01-29T05:08:53.575Z,960.15
2023-01-29T05:09:53.582Z,960.11
2023-01-29T05:10:53.555Z,960.14
2023-01-29T05:11:53.559Z,960.18
2023-01-29T05:12:53.566Z,960.11
2023-01-29T05:13:53.527Z,960.07
2023-01-29T05:14:53.538Z,960.06
2023-01-29T05:15:53.601Z,960.05
2023-01-29T05:16:53.493Z,960.06
2023-01-29T05:17:54.013Z,960.05
2023-01-29T05:18:53.467Z,960.05
2023-01-29T05:19:53.444Z,960.02
2023-01-29T05:20:53.530Z,959.99
2023-01-29T05:21:53.443Z,959.92
2023-01-29T05:22:53.459Z,959.93
2023-01-29T05:23:53.567Z,959.97
2023-01-29T05:24:53.416Z,959.91
2023-01-29T05:25:53.392Z,959.86
2023-01-29T05:26:53.368Z,959.85
2023-01-29T05:27:53.447Z,959.75
2023-01-29T05:28:55.461Z,959.75
2023-01-29T05:29:53.351Z,959.73
2023-01-29T05:30:53.362Z,959.73
2023-01-29T05:31:53.363Z,959.76
2023-01-29T05:32:53.346Z,959.75
2023-01-29T05:33:53.336Z,959.71
2023-01-29T05:34:53.310Z,959.71
2023-01-29T05:35:53.308Z,959.69
2023-01-29T05:36:53.270Z,959.64
2023-01-29T05:37:53.272Z,959.60
2023-01-29T05:38:53.257Z,959.58
2023-01-29T05:39:53.234Z,959.66
2023-01-29T05:40:53.229Z,959.58
2023-01-29T05:41:53.207Z,959.52
2023-01-29T05:42:53.231Z,959.55
2023-01-29T05:43:53.822Z,959.58
2023-01-29T05:44:53.375Z,959.48
2023-01-29T05:45:53.195Z,959.47
2023-01-29T05:46:53.224Z,959.42
2023-01-29T05:47:53.157Z,959.39
2023-01-29T05:48:53.138Z,959.32
2023-01-29T05:49:53.131Z,959.25
2023-01-29T05:50:53.199Z,959.24
2023-01-29T05:51:53.120Z,959.19
2023-01-29T05:52:53.084Z,959.17
2023-01-29T05:53:53.074Z,959.14
2023-01-29T05:54:53.163Z,959.15
2023-01-29T05:55:53.051Z,959.10
2023-01-29T05:56:53.067Z,959.02
2023-01-29T05:57:53.036Z,958.98
2023-01-29T05:58:53.029Z,958.98
2023-01-29T05:59:53.039Z,958.94
2023-01-29T06:00:53.021Z,958.87
2023-01-29T06:01:53.049Z,958.85
2023-01-29T06:02:53.123Z,958.86
2023-01-29T06:03:53.000Z,958.85
2023-01-29T06:04:53.017Z,958.85
2023-01-29T06:05:52.960Z,958.89
2023-01-29T06:06:52.941Z,958.78
2023-01-29T06:07:52.983Z,958.79
2023-01-29T06:08:52.960Z,958.72
2023-01-29T06:09:52.986Z,958.73
2023-01-29T06:10:52.917Z,958.68
2023-01-29T06:11:52.918Z,958.72
2023-01-29T06:12:52.877Z,958.70
2023-01-29T06:13:52.902Z,958.75
2023-01-29T06:14:52.854Z,958.70
2023-01-29T06:15:52.940Z,958.63
2023-01-29T06:16:52.848Z,958.64
2023-01-29T06:17:52.839Z,958.65
2023-01-29T06:18:52.819Z,958.61
2023-01-29T06:19:52.912Z,958.64
2023-01-29T06:20:52.800Z,958.56
2023-01-29T06:21:52.811Z,958.53
2023-01-29T06:22:52.778Z,958.50
2023-01-29T06:23:52.946Z,958.43
2023-01-29T06:24:52.842Z,958.43
2023-01-29T06:25:52.741Z,958.35
2023-01-29T06:26:52.803Z,958.29
2023-01-29T06:27:52.730Z,958.28
2023-01-29T06:28:52.696Z,958.27
2023-01-29T06:29:52.690Z,958.19
2023-01-29T06:30:52.717Z,958.20
2023-01-29T06:31:52.815Z,958.14
2023-01-29T06:32:52.695Z,958.05
2023-01-29T06:33:52.660Z,958.04
2023-01-29T06:34:52.677Z,957.97
2023-01-29T06:35:52.629Z,958.02
2023-01-29T06:36:52.624Z,957.97
2023-01-29T06:37:52.676Z,957.94
2023-01-29T06:38:52.614Z,957.92
2023-01-29T06:39:52.605Z,957.90
2023-01-29T06:40:52.580Z,957.94
2023-01-29T06:41:52.565Z,957.96
2023-01-29T06:42:52.541Z,957.95
2023-01-29T06:43:52.573Z,957.92
2023-01-29T06:44:52.542Z,957.88
2023-01-29T06:45:52.577Z,957.84
2023-01-29T06:46:52.530Z,957.87
2023-01-29T06:47:52.511Z,957.84
2023-01-29T06:48:52.580Z,957.88
2023-01-29T06:49:52.458Z,957.82
2023-01-29T06:50:52.464Z,957.81
2023-01-29T06:51:52.445Z,957.74
2023-01-29T06:52:52.448Z,957.75
2023-01-29T06:53:52.433Z,957.75
2023-01-29T06:54:52.443Z,957.74
2023-01-29T06:55:52.418Z,957.69
2023-01-29T06:56:52.391Z,957.73
2023-01-29T06:57:52.410Z,957.71
2023-01-29T06:58:52.378Z,957.64
2023-01-29T06:59:52.394Z,957.66
2023-01-29T07:00:52.404Z,957.57
2023-01-29T07:01:52.438Z,957.57
2023-01-29T07:02:52.329Z,957.53
2023-01-29T07:03:52.368Z,957.52
2023-01-29T07:04:52.303Z,957.56
2023-01-29T07:05:52.306Z,957.50
2023-01-29T07:06:52.289Z,957.46
2023-01-29T07:07:52.283Z,957.45
2023-01-29T07:08:52.299Z,957.48
2023-01-29T07:09:52.265Z,957.45
2023-01-29T07:10:52.281Z,957.43
2023-01-29T07:11:52.254Z,957.41
2023-01-29T07:12:52.222Z,957.41
2023-01-29T07:13:52.211Z,957.36
2023-01-29T07:14:52.220Z,957.34
2023-01-29T07:15:52.180Z,957.30
2023-01-29T07:16:52.578Z,957.28
2023-01-29T07:17:52.173Z,957.26
2023-01-29T07:18:52.159Z,957.25
2023-01-29T07:19:52.169Z,957.21
2023-01-29T07:20:52.129Z,957.25
2023-01-29T07:21:52.122Z,957.21
2023-01-29T07:22:52.121Z,957.18
2023-01-29T07:23:52.110Z,957.16
2023-01-29T07:24:52.105Z,957.10
2023-01-29T07:25:52.107Z,957.06
2023-01-29T07:26:52.216Z,957.04
2023-01-29T07:27:52.076Z,957.02
2023-01-29T07:28:52.049Z,957.01
2023-01-29T07:29:52.039Z,957.00
2023-01-29T07:30:52.133Z,957.02
2023-01-29T07:31:52.133Z,957.01
2023-01-29T07:32:52.021Z,956.98
2023-01-29T07:33:52.064Z,957.00
2023-01-29T07:34:51.990Z,956.97
2023-01-29T07:35:51.979Z,956.97
2023-01-29T07:36:51.978Z,956.97
2023-01-29T07:37:51.977Z,956.90
2023-01-29T07:38:52.239Z,956.90
2023-01-29T07:39:51.984Z,956.88
2023-01-29T07:40:51.916Z,956.90
2023-01-29T07:41:51.901Z,956.88
2023-01-29T07:42:51.930Z,956.85
2023-01-29T07:43:51.882Z,956.82
2023-01-29T07:44:51.882Z,956.82
2023-01-29T07:45:51.942Z,956.84
2023-01-29T07:46:51.857Z,956.79
2023-01-29T07:47:51.847Z,956.79
2023-01-29T07:48:51.849Z,956.81
2023-01-29T07:49:51.885Z,956.81
2023-01-29T07:50:51.804Z,956.83
2023-01-29T07:51:51.818Z,956.78
2023-01-29T07:52:51.795Z,956.69
2023-01-29T07:53:51.782Z,956.67
2023-01-29T07:54:51.796Z,956.65
2023-01-29T07:55:51.779Z,956.58
2023-01-29T07:56:51.782Z,956.59
2023-01-29T07:57:51.739Z,956.51
2023-01-29T07:58:51.715Z,956.47
2023-01-29T07:59:51.785Z,956.43
2023-01-29T08:00:51.821Z,956.49
2023-01-29T08:01:51.772Z,956.48
2023-01-29T08:02:51.697Z,956.41
2023-01-29T08:03:51.669Z,956.46
2023-01-29T08:04:51.669Z,956.40
2023-01-29T08:05:51.645Z,956.40
2023-01-29T08:06:51.668Z,956.33
2023-01-29T08:08:05.753Z,956.31
2023-01-29T08:08:51.609Z,956.36
2023-01-29T08:09:51.592Z,956.31
2023-01-29T08:10:51.649Z,956.31
2023-01-29T08:11:51.577Z,956.26
2023-01-29T08:12:51.570Z,956.34
2023-01-29T08:13:51.568Z,956.29
2023-01-29T08:14:51.533Z,956.24
2023-01-29T08:15:51.526Z,956.23
2023-01-29T08:16:51.771Z,956.21
2023-01-29T08:17:57.746Z,956.25
2023-01-29T08:18:51.509Z,956.14
2023-01-29T08:19:51.593Z,956.14
2023-01-29T08:20:52.901Z,956.12
2023-01-29T08:21:51.500Z,956.04
2023-01-29T08:22:51.447Z,955.98
2023-01-29T08:23:51.449Z,955.91
2023-01-29T08:24:54.155Z,955.98
2023-01-29T08:25:51.488Z,955.98
2023-01-29T08:26:51.417Z,955.93
2023-01-29T08:27:51.417Z,955.93
2023-01-29T08:28:51.412Z,955.91
2023-01-29T08:29:51.387Z,955.86
2023-01-29T08:30:51.383Z,955.82
2023-01-29T08:31:51.416Z,955.76
2023-01-29T08:32:51.361Z,955.76
2023-01-29T08:33:51.368Z,955.74
2023-01-29T08:34:51.337Z,955.63
2023-01-29T08:35:51.328Z,955.62
2023-01-29T08:36:51.377Z,955.56
2023-01-29T08:37:51.289Z,955.52
2023-01-29T08:38:51.346Z,955.52
2023-01-29T08:39:51.299Z,955.53
2023-01-29T08:40:51.254Z,955.48
2023-01-29T08:41:51.261Z,955.48
2023-01-29T08:42:51.375Z,955.44
2023-01-29T08:43:51.234Z,955.42
2023-01-29T08:44:51.194Z,955.40
2023-01-29T08:45:51.227Z,955.37
2023-01-29T08:46:51.196Z,955.34
2023-01-29T08:47:51.245Z,955.30
2023-01-29T08:48:51.196Z,955.30
2023-01-29T08:49:51.176Z,955.29
2023-01-29T08:50:51.178Z,955.19
2023-01-29T08:51:51.135Z,955.15
2023-01-29T08:52:51.162Z,955.09
2023-01-29T08:53:51.687Z,955.09
2023-01-29T08:54:51.132Z,955.09
2023-01-29T08:55:51.085Z,955.07
2023-01-29T08:56:51.123Z,955.02
2023-01-29T08:57:51.081Z,954.99
2023-01-29T08:58:51.095Z,954.96
2023-01-29T08:59:51.305Z,954.92
2023-01-29T09:00:51.084Z,954.90
2023-01-29T09:01:51.009Z,954.90
2023-01-29T09:02:51.082Z,954.89
2023-01-29T09:03:51.073Z,954.79
2023-01-29T09:04:50.993Z,954.73
2023-01-29T09:05:50.988Z,954.75
2023-01-29T09:06:50.977Z,954.71
2023-01-29T09:07:53.287Z,954.74
2023-01-29T09:08:50.950Z,954.68
2023-01-29T09:09:51.014Z,954.64
2023-01-29T09:10:50.983Z,954.58
2023-01-29T09:11:50.903Z,954.46
2023-01-29T09:12:50.966Z,954.46
2023-01-29T09:13:50.884Z,954.41
2023-01-29T09:14:50.951Z,954.39
2023-01-29T09:15:50.886Z,954.36
2023-01-29T09:16:50.969Z,954.40
2023-01-29T09:17:50.880Z,954.33
2023-01-29T09:18:50.870Z,954.26
2023-01-29T09:19:50.823Z,954.24
2023-01-29T09:20:50.884Z,954.23
2023-01-29T09:21:50.810Z,954.19
2023-01-29T09:22:50.814Z,954.15
2023-01-29T09:23:50.866Z,954.11
2023-01-29T09:24:50.809Z,954.07
2023-01-29T09:25:50.769Z,954.10
2023-01-29T09:26:50.762Z,954.01
2023-01-29T09:27:50.738Z,953.95
2023-01-29T09:28:50.756Z,953.93
2023-01-29T09:29:50.808Z,953.94
2023-01-29T09:30:50.786Z,953.89
2023-01-29T09:31:50.840Z,953.84
2023-01-29T09:32:54.801Z,953.80
2023-01-29T09:33:50.669Z,953.75
2023-01-29T09:34:50.696Z,953.72
2023-01-29T09:35:50.661Z,953.72
2023-01-29T09:36:50.638Z,953.69
2023-01-29T09:37:50.684Z,953.66
2023-01-29T09:38:50.624Z,953.58
2023-01-29T09:39:50.656Z,953.58
2023-01-29T09:40:50.616Z,953.48
2023-01-29T09:41:50.619Z,953.37
2023-01-29T09:42:50.598Z,953.36
2023-01-29T09:43:50.572Z,953.32
2023-01-29T09:44:50.618Z,953.31
2023-01-29T09:45:50.580Z,953.35
2023-01-29T09:46:50.552Z,953.25
2023-01-29T09:47:50.537Z,953.20
2023-01-29T09:48:50.561Z,953.15
2023-01-29T09:49:50.500Z,953.14
2023-01-29T09:50:50.505Z,953.18
2023-01-29T09:51:50.484Z,953.16
2023-01-29T09:52:50.465Z,953.16
2023-01-29T09:53:50.483Z,953.08
2023-01-29T09:54:50.431Z,953.09
2023-01-29T09:55:50.457Z,953.01
2023-01-29T09:56:50.451Z,952.92
2023-01-29T09:57:50.417Z,952.82
2023-01-29T09:58:50.431Z,952.81
2023-01-29T09:59:50.411Z,952.76
2023-01-29T10:00:50.367Z,952.71
2023-01-29T10:01:50.530Z,952.67
2023-01-29T10:02:50.358Z,952.61
2023-01-29T10:03:50.361Z,952.61
2023-01-29T10:04:50.397Z,952.63
2023-01-29T10:05:50.320Z,952.54
2023-01-29T10:06:50.303Z,952.52
2023-01-29T10:07:50.344Z,952.43
2023-01-29T10:08:50.290Z,952.47
2023-01-29T10:09:50.328Z,952.42
2023-01-29T10:10:50.290Z,952.42
2023-01-29T10:11:50.283Z,952.39
2023-01-29T10:12:50.252Z,952.27
2023-01-29T10:13:50.232Z,952.25
2023-01-29T10:14:50.239Z,952.19
2023-01-29T10:15:50.236Z,952.18
2023-01-29T10:16:50.234Z,952.18
2023-01-29T10:17:50.593Z,952.16
2023-01-29T10:18:50.197Z,952.09
2023-01-29T10:19:50.178Z,952.05
2023-01-29T10:20:50.215Z,952.01
2023-01-29T10:21:50.159Z,951.99
2023-01-29T10:22:50.183Z,951.98
2023-01-29T10:23:50.107Z,951.94
2023-01-29T10:24:50.133Z,951.95
2023-01-29T10:25:50.117Z,951.85
2023-01-29T10:26:50.109Z,951.80
2023-01-29T10:27:50.095Z,951.80
2023-01-29T10:28:50.062Z,951.78
2023-01-29T10:29:50.064Z,951.81
2023-01-29T10:30:50.228Z,951.75
2023-01-29T10:31:50.221Z,951.75
2023-01-29T10:32:50.027Z,951.71
2023-01-29T10:34:01.398Z,951.78
2023-01-29T10:34:50.545Z,951.65
2023-01-29T10:35:50.017Z,951.71
2023-01-29T10:36:50.005Z,951.68
2023-01-29T10:37:50.048Z,951.64
2023-01-29T10:38:49.996Z,951.61
2023-01-29T10:39:49.943Z,951.63
2023-01-29T10:40:49.931Z,951.56
2023-01-29T10:41:49.916Z,951.55
2023-01-29T10:42:49.926Z,951.54
2023-01-29T10:43:49.926Z,951.56
2023-01-29T10:44:49.893Z,951.50
2023-01-29T10:45:49.897Z,951.49
2023-01-29T10:46:49.877Z,951.45
2023-01-29T10:47:49.979Z,951.42
2023-01-29T10:48:49.879Z,951.42
2023-01-29T10:49:49.851Z,951.40
2023-01-29T10:50:49.827Z,951.37
2023-01-29T10:51:49.846Z,951.30
2023-01-29T10:52:49.817Z,951.31
2023-01-29T10:53:49.815Z,951.33
2023-01-29T10:54:49.845Z,951.30
2023-01-29T10:55:49.773Z,951.31
2023-01-29T10:56:49.792Z,951.30
2023-01-29T10:57:49.791Z,951.26
2023-01-29T10:58:49.784Z,951.30
2023-01-29T10:59:49.717Z,951.25
2023-01-29T11:00:49.732Z,951.24
2023-01-29T11:01:49.813Z,951.13
2023-01-29T11:02:49.847Z,951.11
2023-01-29T11:03:49.712Z,951.08
2023-01-29T11:04:49.680Z,951.05
2023-01-29T11:05:49.693Z,951.03
2023-01-29T11:06:49.715Z,950.95
2023-01-29T11:07:49.641Z,950.92
2023-01-29T11:08:49.699Z,950.86
2023-01-29T11:09:49.661Z,950.84
2023-01-29T11:10:49.671Z,950.80
2023-01-29T11:11:49.601Z,950.73
2023-01-29T11:12:49.606Z,950.73
2023-01-29T11:13:49.587Z,950.70
2023-01-29T11:14:49.583Z,950.65
2023-01-29T11:15:49.549Z,950.64
2023-01-29T11:16:49.622Z,950.56
2023-01-29T11:17:49.632Z,950.52
2023-01-29T11:18:49.516Z,950.53
2023-01-29T11:19:49.523Z,950.48
2023-01-29T11:20:50.186Z,950.44
2023-01-29T11:21:49.483Z,950.36
2023-01-29T11:22:49.469Z,950.37
2023-01-29T11:23:49.452Z,950.33
2023-01-29T11:24:49.487Z,950.29
2023-01-29T11:25:49.450Z,950.26
2023-01-29T11:26:49.447Z,950.23
2023-01-29T11:27:49.441Z,950.20
2023-01-29T11:28:49.413Z,950.18
2023-01-29T11:29:49.542Z,950.13
2023-01-29T11:30:49.490Z,950.10
2023-01-29T11:31:49.392Z,950.05
2023-01-29T11:32:49.426Z,950.00
2023-01-29T11:33:49.372Z,949.94
2023-01-29T11:34:49.338Z,949.92
2023-01-29T11:35:49.384Z,949.91
2023-01-29T11:36:49.403Z,949.84
2023-01-29T11:37:49.295Z,949.77
2023-01-29T11:38:49.295Z,949.69
2023-01-29T11:39:49.326Z,949.71
2023-01-29T11:40:49.287Z,949.71
2023-01-29T11:41:49.319Z,949.70
2023-01-29T11:42:49.286Z,949.60
2023-01-29T11:43:49.338Z,949.65
2023-01-29T11:44:49.246Z,949.54
2023-01-29T11:45:49.232Z,949.49
2023-01-29T11:46:49.260Z,949.56
2023-01-29T11:47:49.224Z,949.59
2023-01-29T11:48:49.227Z,949.59
2023-01-29T11:49:49.207Z,949.52
2023-01-29T11:50:49.155Z,949.45
2023-01-29T11:51:49.188Z,949.47
2023-01-29T11:52:49.139Z,949.34
2023-01-29T11:53:49.151Z,949.35
2023-01-29T11:54:49.123Z,949.34
2023-01-29T11:55:51.034Z,949.27
2023-01-29T11:56:49.229Z,949.25
2023-01-29T11:57:49.074Z,949.18
2023-01-29T11:58:49.079Z,949.12
2023-01-29T11:59:49.064Z,949.12
2023-01-29T12:00:49.109Z,949.09
2023-01-29T12:01:49.047Z,949.02
2023-01-29T12:02:49.028Z,949.02
2023-01-29T12:03:49.061Z,949.03
2023-01-29T12:04:49.037Z,948.96
2023-01-29T12:05:49.134Z,948.95
2023-01-29T12:06:49.076Z,948.93
2023-01-29T12:07:49.053Z,948.89
2023-01-29T12:08:48.963Z,948.87
2023-01-29T12:09:49.061Z,948.85
2023-01-29T12:10:49.003Z,948.77
2023-01-29T12:11:49.013Z,948.77
2023-01-29T12:12:48.929Z,948.72
2023-01-29T12:13:48.907Z,948.63
2023-01-29T12:14:48.899Z,948.54
2023-01-29T12:15:49.231Z,948.53
2023-01-29T12:16:48.936Z,948.51
2023-01-29T12:17:48.874Z,948.43
2023-01-29T12:18:48.851Z,948.44
2023-01-29T12:19:48.907Z,948.43
2023-01-29T12:20:48.835Z,948.39
2023-01-29T12:21:48.897Z,948.35
2023-01-29T12:22:48.835Z,948.33
2023-01-29T12:23:48.797Z,948.32
2023-01-29T12:24:48.778Z,948.29
2023-01-29T12:25:48.794Z,948.22
2023-01-29T12:26:48.784Z,948.25
2023-01-29T12:27:48.761Z,948.18
2023-01-29T12:28:48.752Z,948.18